Time;durP1;ratioP1;P1;durP2;ratioP2;P2;SDS_P1;SDS_P2;PMS_P1;PMS_P2;Temp;Humidity;BMP_temperature;BMP_pressure;BME280_temperature;BME280_humidity;BME280_pressure;Samples;Min_cycle;Max_cycle;Signal;HPM_P1;HPM_P2
2022/08/24 00:00:08;;;;;;;11.07;2.83;;;;;;;19.08;84.28;101243.75;4954440;28;20410;-77
2022/08/24 00:02:35;;;;;;;3.78;2.25;;;;;;;19.03;84.37;101238.81;4920230;28;20158;-77
2022/08/24 00:05:03;;;;;;;6.60;2.45;;;;;;;19.05;82.87;101238.66;4959038;28;20074;-76
2022/08/24 00:07:31;;;;;;;3.95;2.15;;;;;;;19.04;82.29;101243.16;4968344;28;20169;-77
2022/08/24 00:09:59;;;;;;;5.90;2.55;;;;;;;19.04;81.80;101245.00;4964985;28;20050;-77
2022/08/24 00:12:27;;;;;;;5.70;2.47;;;;;;;19.04;81.43;101253.84;4965016;28;20055;-78
2022/08/24 00:14:54;;;;;;;5.47;2.42;;;;;;;19.03;82.05;101244.16;4957152;28;20066;-77
2022/08/24 00:17:21;;;;;;;6.55;2.58;;;;;;;19.01;82.62;101247.94;4954876;28;20062;-77
2022/08/24 00:19:48;;;;;;;4.57;2.25;;;;;;;18.98;82.41;101251.69;4966752;28;20081;-78
2022/08/24 00:22:16;;;;;;;4.85;2.40;;;;;;;18.96;82.20;101251.00;4949055;28;20042;-77
2022/08/24 00:24:43;;;;;;;3.97;2.53;;;;;;;18.94;82.06;101244.94;4965587;28;20107;-78
2022/08/24 00:27:11;;;;;;;8.32;3.45;;;;;;;18.95;81.84;101252.78;4965106;28;20047;-77
2022/08/24 00:29:38;;;;;;;5.57;3.00;;;;;;;18.96;81.54;101245.66;4946695;28;20055;-77
2022/08/24 00:32:05;;;;;;;6.80;2.78;;;;;;;18.97;82.86;101250.00;4944595;28;20055;-80
2022/08/24 00:34:33;;;;;;;6.57;2.90;;;;;;;18.93;83.00;101252.09;4945080;28;20839;-76
2022/08/24 00:37:00;;;;;;;4.40;2.90;;;;;;;18.94;81.83;101251.09;4963226;28;20062;-77
2022/08/24 00:39:27;;;;;;;6.03;3.03;;;;;;;18.95;81.69;101250.13;4958953;28;20061;-77
2022/08/24 00:41:55;;;;;;;8.02;3.33;;;;;;;18.92;81.85;101245.06;4949786;28;20066;-77
2022/08/24 00:44:22;;;;;;;7.82;3.00;;;;;;;18.85;82.45;101256.38;4965501;28;20035;-78
2022/08/24 00:46:54;;;;;;;7.82;3.40;;;;;;;18.77;82.98;101254.34;4949455;28;20059;-78
2022/08/24 00:49:31;;;;;;;7.75;3.80;;;;;;;18.70;85.00;101256.69;4938933;28;20066;-78
2022/08/24 00:52:11;;;;;;;6.68;3.88;;;;;;;18.61;86.99;101253.91;4937123;28;20053;-77
2022/08/24 00:54:43;;;;;;;7.90;4.25;;;;;;;18.55;85.65;101251.72;4961136;28;20046;-77
2022/08/24 00:57:14;;;;;;;8.52;3.60;;;;;;;18.59;85.72;101255.84;4978255;28;20062;-77
2022/08/24 00:59:45;;;;;;;8.02;3.35;;;;;;;18.57;87.48;101250.63;4956851;28;20069;-77
2022/08/24 01:02:21;;;;;;;9.70;4.20;;;;;;;18.54;86.44;101252.72;4943527;28;20058;-78
2022/08/24 01:04:55;;;;;;;5.95;3.63;;;;;;;18.55;86.13;101249.94;4938083;28;20167;-77
2022/08/24 01:07:25;;;;;;;8.52;3.60;;;;;;;18.58;85.27;101251.47;4946774;28;20445;-77
2022/08/24 01:09:54;;;;;;;4.72;2.92;;;;;;;18.61;84.93;101248.56;4938081;28;20046;-78
2022/08/24 01:12:24;;;;;;;6.75;3.58;;;;;;;18.62;84.18;101251.09;4931480;28;20443;-77
2022/08/24 01:14:51;;;;;;;8.07;3.70;;;;;;;18.63;85.54;101252.78;4960437;28;20146;-76
2022/08/24 01:20:07;;;;;;;7.40;3.83;;;;;;;18.61;84.46;101253.91;4960582;28;20058;-77
2022/08/24 01:22:56;;;;;;;9.75;3.72;;;;;;;18.60;84.49;101253.06;4959239;28;20058;-78
2022/08/24 01:25:25;;;;;;;8.30;3.53;;;;;;;18.55;85.27;101247.28;4969290;28;20129;-79
2022/08/24 01:27:59;;;;;;;4.60;2.92;;;;;;;18.50;85.28;101252.09;4943765;28;20054;-77
2022/08/24 01:30:28;;;;;;;5.88;3.22;;;;;;;18.47;85.81;101252.38;4945392;28;20093;-77
2022/08/24 01:33:07;;;;;;;7.72;3.20;;;;;;;18.42;86.17;101262.59;4956748;28;20073;-78
2022/08/24 01:35:37;;;;;;;9.18;3.40;;;;;;;18.39;86.71;101254.81;4933446;28;20057;-79
2022/08/24 01:38:08;;;;;;;7.68;3.00;;;;;;;18.33;87.15;101255.34;4956990;28;20058;-77
2022/08/24 01:40:38;;;;;;;8.07;3.30;;;;;;;18.30;86.55;101260.91;4941433;28;20113;-77
2022/08/24 01:43:06;;;;;;;6.25;2.60;;;;;;;18.29;86.33;101268.06;4944603;28;20371;-76
2022/08/24 01:45:33;;;;;;;7.00;3.15;;;;;;;18.31;86.65;101274.09;4944200;28;20054;-78
2022/08/24 01:48:01;;;;;;;3.97;2.88;;;;;;;18.33;86.05;101269.50;4911419;28;20057;-77
2022/08/24 01:50:30;;;;;;;8.07;3.53;;;;;;;18.37;86.30;101265.63;4957929;28;20057;-78
2022/08/24 01:53:00;;;;;;;5.38;2.90;;;;;;;18.38;87.62;101269.13;4924484;28;21547;-79
2022/08/24 01:55:32;;;;;;;5.75;3.55;;;;;;;18.37;89.34;101265.63;4947372;28;20062;-77
2022/08/24 01:58:00;;;;;;;8.52;4.18;;;;;;;18.36;89.95;101268.38;4964551;28;20501;-77
2022/08/24 02:00:27;;;;;;;10.52;4.78;;;;;;;18.38;89.29;101271.81;4953598;28;20109;-77
2022/08/24 02:02:55;;;;;;;10.43;5.25;;;;;;;18.41;88.73;101266.19;4934688;28;20058;-77
2022/08/24 02:05:49;;;;;;;9.07;4.78;;;;;;;18.46;89.53;101269.31;4907266;28;20823;-77
2022/08/24 02:08:26;;;;;;;11.88;5.72;;;;;;;18.48;88.28;101267.41;4954717;28;20055;-76
2022/08/24 02:10:53;;;;;;;11.88;6.70;;;;;;;18.54;88.65;101276.72;4975921;28;20070;-64
2022/08/24 02:13:22;;;;;;;13.70;7.00;;;;;;;18.57;88.86;101266.63;4971315;28;20051;-62
2022/08/24 02:15:49;;;;;;;14.73;7.00;;;;;;;18.59;88.58;101272.69;4965155;28;20055;-62
2022/08/24 02:18:17;;;;;;;11.85;5.75;;;;;;;18.59;87.67;101282.50;4972809;28;20065;-64
2022/08/24 02:20:44;;;;;;;13.38;6.88;;;;;;;18.66;88.70;101276.53;4961227;28;20058;-61
2022/08/24 02:23:12;;;;;;;12.65;7.03;;;;;;;18.68;89.13;101265.75;4969775;28;20050;-63
2022/08/24 02:25:39;;;;;;;15.02;6.75;;;;;;;18.68;89.15;101268.41;4972005;28;20062;-61
2022/08/24 02:28:06;;;;;;;14.75;7.97;;;;;;;18.68;89.23;101265.75;4965310;28;20070;-62
2022/08/24 02:30:34;;;;;;;18.85;8.88;;;;;;;18.65;88.55;101266.03;4962478;28;20050;-60
2022/08/24 02:33:01;;;;;;;15.68;7.68;;;;;;;18.63;90.23;101266.13;4965666;28;20059;-63
2022/08/24 02:35:29;;;;;;;16.73;8.85;;;;;;;18.58;90.51;101270.16;4967332;28;20066;-62
2022/08/24 02:37:56;;;;;;;18.15;8.82;;;;;;;18.60;89.82;101268.22;4967622;28;20057;-63
2022/08/24 02:40:24;;;;;;;16.13;7.93;;;;;;;18.59;90.27;101269.16;4971240;28;20058;-62
2022/08/24 02:42:51;;;;;;;13.98;9.25;;;;;;;18.58;91.50;101265.66;4982815;28;20057;-63
2022/08/24 02:45:18;;;;;;;17.88;9.65;;;;;;;18.57;92.62;101266.63;4987983;28;20054;-63
2022/08/24 02:47:46;;;;;;;15.80;9.57;;;;;;;18.52;92.93;101263.50;4986609;28;20050;-62
2022/08/24 02:50:14;;;;;;;15.38;8.13;;;;;;;18.52;91.99;101260.00;4982508;28;20070;-63
2022/08/24 02:52:42;;;;;;;11.20;8.35;;;;;;;18.53;92.12;101257.19;4984210;28;20060;-63
2022/08/24 02:55:14;;;;;;;16.80;8.18;;;;;;;18.51;92.24;101264.50;4968458;28;20047;-64
2022/08/24 02:57:47;;;;;;;15.10;8.68;;;;;;;18.52;91.15;101252.84;4968527;28;20074;-63
2022/08/24 03:00:16;;;;;;;14.20;7.85;;;;;;;18.50;91.36;101252.09;4965643;28;20030;-61
2022/08/24 03:02:44;;;;;;;12.15;7.53;;;;;;;18.47;90.61;101249.72;4974002;28;20058;-63
2022/08/24 03:05:11;;;;;;;15.05;8.95;;;;;;;18.47;91.30;101252.38;4969143;28;20111;-65
2022/08/24 03:07:39;;;;;;;13.35;8.20;;;;;;;18.47;90.78;101255.03;4973711;28;20502;-63
2022/08/24 03:10:06;;;;;;;19.38;8.95;;;;;;;18.46;90.44;101254.22;4962315;28;20061;-63
2022/08/24 03:12:33;;;;;;;15.15;8.40;;;;;;;18.44;90.67;101253.47;4967251;28;20051;-63
2022/08/24 03:15:02;;;;;;;17.50;8.45;;;;;;;18.41;91.17;101264.38;4962621;28;20042;-62
2022/08/24 03:17:32;;;;;;;15.35;7.90;;;;;;;18.37;91.24;101254.09;4979689;28;20050;-62
2022/08/24 03:20:05;;;;;;;16.63;9.20;;;;;;;18.37;90.86;101260.28;4971538;28;20054;-62
2022/08/24 03:22:32;;;;;;;18.17;10.13;;;;;;;18.36;91.74;101253.25;4975863;28;20053;-65
2022/08/24 03:24:59;;;;;;;11.40;7.85;;;;;;;18.35;91.43;101253.38;4962288;28;20051;-62
2022/08/24 03:27:26;;;;;;;11.50;7.38;;;;;;;18.34;91.24;101255.19;4971312;28;20547;-63
2022/08/24 03:29:54;;;;;;;12.98;8.05;;;;;;;18.33;91.58;101250.84;4971004;28;20778;-63
2022/08/24 03:32:21;;;;;;;13.15;8.80;;;;;;;18.32;91.09;101253.63;4977376;28;20054;-64
2022/08/24 03:34:48;;;;;;;16.30;9.35;;;;;;;18.34;91.09;101263.19;4967086;28;20049;-63
2022/08/24 03:37:16;;;;;;;13.02;8.15;;;;;;;18.34;90.26;101267.69;4967400;28;20061;-61
2022/08/24 03:39:46;;;;;;;13.15;8.70;;;;;;;18.34;89.98;101252.53;4962434;28;20042;-63
2022/08/24 03:42:13;;;;;;;12.07;8.40;;;;;;;18.38;89.97;101259.31;4962403;28;20043;-63
2022/08/24 03:44:40;;;;;;;11.40;8.73;;;;;;;18.35;90.05;101256.88;4966239;28;20050;-62
2022/08/24 03:47:12;;;;;;;13.52;9.30;;;;;;;18.31;90.38;101260.78;4966104;28;20050;-61
2022/08/24 03:49:39;;;;;;;17.55;8.75;;;;;;;18.31;90.69;101257.25;4964742;28;20050;-63
2022/08/24 03:52:06;;;;;;;16.10;9.40;;;;;;;18.26;90.30;101257.63;4971968;28;20061;-63
2022/08/24 03:54:34;;;;;;;10.80;8.38;;;;;;;18.26;91.20;101267.44;4968864;28;20058;-63
2022/08/24 03:57:01;;;;;;;11.60;8.30;;;;;;;18.23;90.88;101273.88;4971101;28;20047;-62
2022/08/24 03:59:28;;;;;;;15.63;8.93;;;;;;;18.20;91.18;101280.31;4981349;28;20054;-62
2022/08/24 04:01:56;;;;;;;13.07;8.88;;;;;;;18.18;91.22;101268.06;4965307;28;20491;-63
2022/08/24 04:04:24;;;;;;;15.68;8.43;;;;;;;18.16;91.23;101273.53;4965382;28;20050;-62
2022/08/24 04:06:51;;;;;;;13.23;9.52;;;;;;;18.18;90.90;101278.72;4961717;28;20177;-62
2022/08/24 04:09:19;;;;;;;14.40;9.32;;;;;;;18.17;91.12;101277.88;4962652;28;20051;-63
2022/08/24 04:11:46;;;;;;;12.95;8.52;;;;;;;18.16;91.51;101280.69;4964084;28;20070;-62
2022/08/24 04:14:15;;;;;;;12.85;9.52;;;;;;;18.14;91.53;101279.94;4963404;28;20085;-62
2022/08/24 04:16:53;;;;;;;10.82;9.25;;;;;;;18.13;91.20;101280.91;4961115;28;20047;-63
2022/08/24 04:19:24;;;;;;;13.82;9.80;;;;;;;18.11;90.89;101288.19;4961844;28;20055;-63
2022/08/24 04:21:51;;;;;;;16.77;9.38;;;;;;;18.12;90.84;101288.06;4959156;28;20126;-64
2022/08/24 04:24:19;;;;;;;14.73;8.90;;;;;;;18.11;90.80;101282.88;4975342;28;20526;-62
2022/08/24 04:26:47;;;;;;;13.02;9.63;;;;;;;18.12;91.10;101293.41;4966425;28;20535;-63
2022/08/24 04:29:16;;;;;;;13.13;8.07;;;;;;;18.15;90.42;101292.31;4967078;28;20390;-63
2022/08/24 04:31:43;;;;;;;13.15;7.55;;;;;;;18.20;89.48;101290.97;4966110;28;20094;-63
2022/08/24 04:34:12;;;;;;;12.23;7.35;;;;;;;18.28;88.71;101287.69;4966791;28;20046;-63
2022/08/24 04:36:41;;;;;;;10.38;7.38;;;;;;;18.34;87.88;101291.69;4964745;28;20400;-64
2022/08/24 04:39:08;;;;;;;9.32;6.72;;;;;;;18.38;87.26;101304.63;4984062;28;20059;-62
2022/08/24 04:41:35;;;;;;;11.43;7.70;;;;;;;18.42;86.67;101299.91;4966241;28;20047;-63
2022/08/24 04:44:03;;;;;;;12.27;7.55;;;;;;;18.44;86.42;101305.94;4967770;28;20077;-63
2022/08/24 04:46:30;;;;;;;15.30;8.05;;;;;;;18.46;86.03;101296.00;4967264;28;20093;-61
2022/08/24 04:48:57;;;;;;;10.65;7.80;;;;;;;18.46;85.97;101299.53;4967483;28;20067;-63
2022/08/24 04:51:24;;;;;;;12.15;7.43;;;;;;;18.47;85.67;101298.56;4966828;28;20061;-63
2022/08/24 04:53:51;;;;;;;13.10;7.80;;;;;;;18.47;85.50;101297.72;4967395;28;20042;-64
2022/08/24 04:56:22;;;;;;;9.43;7.45;;;;;;;18.52;85.41;101300.84;4969617;28;20075;-65
2022/08/24 04:58:50;;;;;;;12.27;9.05;;;;;;;18.57;86.61;101301.31;4975390;28;20058;-62
2022/08/24 05:01:21;;;;;;;13.18;9.23;;;;;;;18.63;87.83;101300.78;4971350;28;20059;-63
2022/08/24 05:03:50;;;;;;;17.02;11.75;;;;;;;18.62;87.55;101303.59;4974871;28;20387;-61
2022/08/24 05:06:18;;;;;;;13.35;9.00;;;;;;;18.57;87.73;101306.63;4972631;28;20451;-63
2022/08/24 05:08:46;;;;;;;12.05;7.82;;;;;;;18.56;87.45;101309.44;4964258;28;20396;-63
2022/08/24 05:11:16;;;;;;;14.52;8.13;;;;;;;18.58;87.07;101315.47;4961764;28;20165;-64
2022/08/24 05:13:43;;;;;;;15.18;7.97;;;;;;;18.63;87.96;101315.94;4964918;28;20052;-65
2022/08/24 05:16:14;;;;;;;15.07;8.55;;;;;;;18.63;88.50;101323.94;4981696;28;20050;-63
2022/08/24 05:18:42;;;;;;;11.20;7.75;;;;;;;18.65;89.41;101330.03;4981978;28;20065;-62
2022/08/24 05:21:11;;;;;;;11.98;7.82;;;;;;;18.64;89.06;101326.50;4979893;28;20781;-61
2022/08/24 05:23:39;;;;;;;11.85;7.50;;;;;;;18.65;89.25;101336.19;4976784;28;20062;-61
2022/08/24 05:26:14;;;;;;;11.02;8.60;;;;;;;18.65;92.79;101341.53;4969389;28;20514;-61
2022/08/24 05:28:42;;;;;;;12.65;8.63;;;;;;;18.60;93.25;101342.88;4970540;28;20058;-62
2022/08/24 05:31:16;;;;;;;13.35;7.90;;;;;;;18.61;93.89;101336.56;4966370;28;20163;-64
2022/08/24 05:33:43;;;;;;;14.52;8.60;;;;;;;18.64;94.16;101336.31;4965882;28;20065;-63
2022/08/24 05:36:20;;;;;;;13.48;7.25;;;;;;;18.63;94.31;101337.28;4964124;28;20399;-62
2022/08/24 05:38:49;;;;;;;10.32;7.38;;;;;;;18.67;93.55;101339.56;4968758;28;20129;-62
2022/08/24 05:41:16;;;;;;;11.75;7.97;;;;;;;18.74;92.73;101337.31;4987564;28;20082;-63
2022/08/24 05:43:44;;;;;;;12.52;6.72;;;;;;;18.78;92.87;101336.09;4965569;28;20062;-62
2022/08/24 05:46:12;;;;;;;9.52;6.72;;;;;;;18.84;92.49;101340.06;4967077;28;20105;-62
2022/08/24 05:48:39;;;;;;;14.77;7.32;;;;;;;18.87;91.85;101340.66;4971266;28;20066;-62
2022/08/24 05:51:07;;;;;;;11.95;8.20;;;;;;;18.91;91.55;101347.44;4970166;28;20050;-63
2022/08/24 05:53:35;;;;;;;14.10;8.98;;;;;;;18.91;92.47;101343.91;4967401;28;20122;-61
2022/08/24 05:56:04;;;;;;;14.85;8.27;;;;;;;18.92;92.76;101340.28;4959300;28;20055;-63
2022/08/24 05:58:31;;;;;;;9.82;7.05;;;;;;;18.94;91.92;101347.16;4965410;28;20070;-62
2022/08/24 06:01:05;;;;;;;15.68;9.68;;;;;;;18.98;93.42;101339.75;4967010;28;20054;-62
2022/08/24 06:03:32;;;;;;;11.45;7.63;;;;;;;18.95;93.18;101348.00;4968421;28;20062;-63
2022/08/24 06:06:01;;;;;;;12.60;8.68;;;;;;;18.98;93.13;101348.59;4977427;28;20043;-63
2022/08/24 06:08:29;;;;;;;10.55;7.32;;;;;;;19.01;92.34;101349.34;4984286;28;20149;-64
2022/08/24 06:10:57;;;;;;;11.63;6.97;;;;;;;19.06;91.94;101347.13;4971446;28;20049;-63
2022/08/24 06:13:24;;;;;;;10.40;6.78;;;;;;;19.12;90.97;101343.94;4979487;28;20144;-62
2022/08/24 06:16:07;;;;;;;10.68;6.95;;;;;;;19.20;90.64;101341.47;4981787;28;20042;-63
2022/08/24 06:18:48;;;;;;;9.75;5.85;;;;;;;19.25;89.91;101347.28;4976558;28;20137;-63
2022/08/24 06:21:19;;;;;;;10.23;7.88;;;;;;;19.33;88.89;101347.50;4966990;28;20054;-63
2022/08/24 06:23:47;;;;;;;11.85;6.85;;;;;;;19.37;88.79;101350.75;4969171;28;20074;-63
2022/08/24 06:29:01;;;;;;;9.57;7.55;;;;;;;19.39;90.81;101354.97;4964646;28;20069;-63
2022/08/24 06:31:28;;;;;;;15.80;8.82;;;;;;;19.43;90.67;101353.72;4975803;28;20050;-63
2022/08/24 06:34:09;;;;;;;12.15;8.88;;;;;;;19.51;90.84;101354.91;4967997;28;20047;-63
2022/08/24 06:36:36;;;;;;;12.88;9.75;;;;;;;19.54;90.89;101354.63;4972349;28;20059;-63
2022/08/24 06:39:07;;;;;;;11.35;8.02;;;;;;;19.59;90.77;101352.44;5007303;23;20128;-63
2022/08/24 06:41:36;;;;;;;12.13;7.35;;;;;;;19.64;89.90;101355.59;5000169;28;20062;-62
2022/08/24 06:44:05;;;;;;;15.23;9.48;;;;;;;19.68;90.72;101365.06;5004667;28;20061;-61
2022/08/24 06:46:35;;;;;;;13.15;9.25;;;;;;;19.63;91.28;101361.91;5003070;28;20153;-63
2022/08/24 06:49:02;;;;;;;17.30;9.88;;;;;;;19.64;91.91;101366.28;5003946;28;20057;-61
2022/08/24 06:51:30;;;;;;;15.20;9.60;;;;;;;19.62;94.02;101371.75;5007106;28;20060;-60
2022/08/24 06:53:57;;;;;;;14.38;9.95;;;;;;;19.59;94.49;101366.66;5007552;28;20062;-62
2022/08/24 06:56:25;;;;;;;13.10;9.05;;;;;;;19.61;94.50;101377.22;5005407;28;20046;-66
2022/08/24 06:58:52;;;;;;;11.38;8.77;;;;;;;19.63;94.13;101376.13;5013339;28;20072;-59
2022/08/24 07:01:24;;;;;;;12.25;8.90;;;;;;;19.68;93.81;101373.06;4997083;28;20072;-61
2022/08/24 07:03:52;;;;;;;15.32;9.52;;;;;;;19.74;93.64;101377.88;5010639;28;20065;-64
2022/08/24 07:06:20;;;;;;;13.77;8.20;;;;;;;19.75;93.62;101384.06;5011072;28;20042;-60
2022/08/24 07:08:47;;;;;;;12.00;8.63;;;;;;;19.84;92.74;101389.44;5007683;28;20056;-61
2022/08/24 07:11:16;;;;;;;10.77;8.80;;;;;;;19.95;92.12;101389.38;5002715;28;20073;-62
2022/08/24 07:13:46;;;;;;;12.20;8.35;;;;;;;20.02;91.60;101381.66;5006158;28;20157;-64
2022/08/24 07:16:17;;;;;;;10.13;7.80;;;;;;;20.05;91.35;101383.25;5005057;28;20046;-65
2022/08/24 07:18:44;;;;;;;11.48;8.32;;;;;;;20.06;91.50;101385.78;4990306;28;20058;-62
2022/08/24 07:21:18;;;;;;;8.52;7.00;;;;;;;20.13;90.92;101384.28;4992217;28;20038;-64
2022/08/24 07:23:49;;;;;;;10.13;7.47;;;;;;;20.21;90.63;101376.41;5007393;28;20729;-64
2022/08/24 07:26:21;;;;;;;8.48;7.03;;;;;;;20.27;90.68;101383.06;5006707;28;20038;-64
2022/08/24 07:28:50;;;;;;;10.93;7.10;;;;;;;20.32;90.49;101388.84;5006214;28;20517;-65
2022/08/24 07:31:17;;;;;;;10.55;6.93;;;;;;;20.39;90.41;101387.31;5003167;28;20073;-64
2022/08/24 07:33:44;;;;;;;13.65;8.85;;;;;;;20.46;90.46;101395.66;5008093;28;20068;-64
2022/08/24 07:36:13;;;;;;;15.77;9.65;;;;;;;20.49;90.63;101390.06;5005849;28;20064;-62
2022/08/24 07:38:52;;;;;;;19.25;10.23;;;;;;;20.44;93.77;101393.13;4990206;28;20510;-64
2022/08/24 07:41:24;;;;;;;13.70;8.63;;;;;;;20.48;92.36;101394.56;5004470;28;20050;-63
2022/08/24 07:44:13;;;;;;;25.60;11.15;;;;;;;20.60;92.19;101389.94;5003701;28;20797;-65
2022/08/24 07:46:40;;;;;;;14.57;9.02;;;;;;;20.67;91.55;101399.13;5000475;28;20065;-64
2022/08/24 07:49:09;;;;;;;12.93;8.55;;;;;;;20.76;90.93;101400.16;5000308;28;20057;-65
2022/08/24 07:51:57;;;;;;;13.90;9.43;;;;;;;20.86;91.64;101395.66;5004168;28;20046;-63
2022/08/24 07:54:26;;;;;;;16.88;10.30;;;;;;;20.92;91.02;101389.72;5003499;28;20090;-65
2022/08/24 07:56:53;;;;;;;17.42;11.15;;;;;;;21.01;90.63;101400.59;5004627;28;20043;-64
2022/08/24 07:59:21;;;;;;;16.10;9.38;;;;;;;21.07;90.42;101400.88;5010141;28;20437;-63
2022/08/24 08:01:49;;;;;;;21.48;11.52;;;;;;;21.17;90.19;101406.25;5010063;28;20062;-65
2022/08/24 08:04:20;;;;;;;23.98;12.43;;;;;;;21.10;92.51;101408.63;4987352;28;20399;-65
2022/08/24 08:06:48;;;;;;;18.33;11.73;;;;;;;21.02;92.72;101413.81;5003707;28;20057;-65
2022/08/24 08:09:16;;;;;;;20.40;12.80;;;;;;;21.08;91.95;101407.09;4994166;28;20072;-62
2022/08/24 08:11:44;;;;;;;17.60;11.32;;;;;;;21.14;91.20;101410.03;5009477;28;20054;-64
2022/08/24 08:14:13;;;;;;;19.70;11.02;;;;;;;21.20;90.98;101412.16;5010065;28;20058;-64
2022/08/24 08:16:41;;;;;;;17.60;10.48;;;;;;;21.30;90.38;101412.19;5003562;28;20050;-64
2022/08/24 08:19:08;;;;;;;13.95;10.60;;;;;;;21.42;89.88;101410.22;4991653;28;20057;-64
2022/08/24 08:24:30;;;;;;;15.27;11.27;;;;;;;21.52;89.13;101408.38;5011224;28;20058;-63
2022/08/24 08:26:58;;;;;;;12.70;9.50;;;;;;;21.55;89.00;101407.25;5009427;28;20042;-64
2022/08/24 08:29:25;;;;;;;13.43;9.43;;;;;;;21.58;88.76;101399.78;5007215;28;20062;-64
2022/08/24 08:31:53;;;;;;;16.30;10.38;;;;;;;21.66;88.26;101409.75;5008848;28;20536;-63
2022/08/24 08:34:20;;;;;;;19.02;11.63;;;;;;;21.67;88.47;101403.44;5010686;28;20053;-62
2022/08/24 08:36:47;;;;;;;17.50;10.80;;;;;;;21.58;89.79;101409.66;5006532;28;20054;-64
2022/08/24 08:39:16;;;;;;;19.45;9.95;;;;;;;21.51;89.60;101414.72;5006435;28;20073;-64
2022/08/24 08:42:20;;;;;;;15.15;10.45;;;;;;;21.53;89.71;101414.59;5008497;28;20064;-64
2022/08/24 08:45:04;;;;;;;14.60;10.07;;;;;;;21.57;89.13;101414.19;5006428;28;20453;-64
2022/08/24 08:47:47;;;;;;;17.63;11.33;;;;;;;21.66;88.72;101418.69;5009433;28;20128;-62
2022/08/24 08:50:20;;;;;;;15.73;10.00;;;;;;;21.79;88.35;101422.88;5007060;28;20522;-64
2022/08/24 08:53:15;;;;;;;11.73;8.73;;;;;;;21.86;88.01;101429.34;4993174;28;20073;-65
2022/08/24 08:56:05;;;;;;;12.33;8.43;;;;;;;21.94;87.01;101433.00;5007241;28;20259;-65
2022/08/24 08:58:39;;;;;;;11.98;8.73;;;;;;;22.04;86.60;101426.78;5006311;28;20383;-63
2022/08/24 09:01:35;;;;;;;14.35;8.70;;;;;;;22.15;86.21;101429.28;5008851;28;20053;-65
2022/08/24 09:04:47;;;;;;;13.88;8.30;;;;;;;22.24;85.66;101429.28;4965624;28;20050;-64
2022/08/24 09:07:31;;;;;;;12.60;9.02;;;;;;;22.31;85.35;101437.59;5006317;28;20057;-63
2022/08/24 09:10:29;;;;;;;11.77;9.05;;;;;;;22.36;85.14;101429.94;5001446;28;20414;-63
2022/08/24 09:13:11;;;;;;;18.88;10.02;;;;;;;;;;4992921;28;20525;-60
2022/08/24 09:16:05;;;;;;;13.82;8.88;;;;;;;22.44;84.99;101434.56;5005425;28;20053;-64
2022/08/24 09:18:53;;;;;;;13.65;9.40;;;;;;;22.48;84.87;101436.81;5009051;28;20058;-65
2022/08/24 09:21:41;;;;;;;11.90;9.00;;;;;;;22.50;84.75;101433.97;4989959;28;20033;-63
2022/08/24 09:24:24;;;;;;;15.10;10.25;;;;;;;22.52;84.52;101432.00;5008119;28;20053;-64
2022/08/24 09:27:03;;;;;;;14.70;11.48;;;;;;;22.54;84.13;101439.88;4992692;28;20057;-64
2022/08/24 09:29:52;;;;;;;15.65;11.25;;;;;;;22.56;84.01;101435.22;4992158;28;20053;-64
2022/08/24 09:32:54;;;;;;;16.05;10.93;;;;;;;22.52;84.24;101436.53;5008218;28;20061;-63
2022/08/24 09:35:37;;;;;;;19.42;13.15;;;;;;;22.43;85.05;101440.94;5005302;28;20076;-64
2022/08/24 09:38:39;;;;;;;19.92;13.02;;;;;;;22.41;85.11;101435.69;5004655;28;20058;-65
2022/08/24 09:41:38;;;;;;;14.45;10.80;;;;;;;22.51;84.40;101441.00;5006886;28;20438;-64
2022/08/24 09:44:43;;;;;;;20.95;12.43;;;;;;;22.56;84.63;101436.06;4990686;28;20057;-68
2022/08/24 09:47:28;;;;;;;16.02;10.57;;;;;;;22.62;84.10;101440.00;5005639;28;20057;-65
2022/08/24 09:50:29;;;;;;;16.25;11.82;;;;;;;22.67;83.86;101438.56;5004356;28;20054;-63
2022/08/24 09:53:12;;;;;;;13.38;10.90;;;;;;;22.69;83.47;101433.88;5002557;28;20050;-64
2022/08/24 09:55:57;;;;;;;18.05;12.43;;;;;;;22.71;83.50;101429.22;4977781;28;20061;-64
2022/08/24 09:58:30;;;;;;;14.70;11.23;;;;;;;22.73;83.43;101429.03;5008682;28;20546;-64
2022/08/24 10:01:00;;;;;;;16.65;11.20;;;;;;;22.76;83.06;101436.81;5007132;28;20422;-64
2022/08/24 10:03:51;;;;;;;16.05;11.68;;;;;;;22.82;83.17;101430.81;5007063;28;20141;-63
2022/08/24 10:06:52;;;;;;;18.98;10.55;;;;;;;22.85;82.89;101441.28;5002024;28;20534;-65
2022/08/24 10:09:38;;;;;;;21.42;13.48;;;;;;;22.86;82.61;101432.22;5007502;28;20061;-63
2022/08/24 10:12:23;;;;;;;;;;;;;;;22.88;82.63;101426.72;5006830;28;20060;-65
2022/08/24 10:15:05;;;;;;;17.77;12.17;;;;;;;22.93;82.13;101419.94;5002898;28;19955;-63
2022/08/24 10:18:13;;;;;;;16.13;11.93;;;;;;;23.00;82.20;101431.72;5008732;28;20096;-63
2022/08/24 10:20:58;;;;;;;17.10;12.63;;;;;;;23.00;82.17;101423.69;5002212;28;20073;-63
2022/08/24 10:23:45;;;;;;;19.45;13.45;;;;;;;23.08;82.14;101425.59;5002676;28;20080;-65
2022/08/24 10:26:24;;;;;;;22.40;13.95;;;;;;;23.18;82.01;101422.84;5007990;28;20049;-64
2022/08/24 10:29:31;;;;;;;18.17;12.85;;;;;;;23.32;81.37;101416.09;4990385;28;20054;-65
2022/08/24 10:32:21;;;;;;;15.77;12.95;;;;;;;23.46;80.99;101421.78;4988166;28;20046;-63
2022/08/24 10:35:04;;;;;;;18.08;13.13;;;;;;;23.54;80.01;101404.03;4997209;28;20494;-65
2022/08/24 10:37:42;;;;;;;15.75;11.10;;;;;;;23.62;79.89;101406.78;5003648;28;20049;-64
2022/08/24 10:40:28;;;;;;;16.73;10.85;;;;;;;23.64;79.79;101402.97;4987995;28;20609;-64
2022/08/24 10:46:31;;;;;;;23.40;11.80;;;;;;;23.61;78.81;101399.72;4984100;28;20066;-63
2022/08/24 10:49:16;;;;;;;12.18;10.32;;;;;;;23.57;79.31;101396.50;4987926;28;20046;-64
2022/08/24 10:51:58;;;;;;;15.43;10.93;;;;;;;23.73;79.10;101396.66;4981020;28;20422;-63
2022/08/24 10:54:26;;;;;;;9.90;8.77;;;;;;;23.89;78.47;101398.59;5002495;28;20056;-63
2022/08/24 10:57:02;;;;;;;12.00;10.20;;;;;;;24.02;78.63;101394.66;5001248;28;20050;-64
2022/08/24 10:59:54;;;;;;;18.75;10.98;;;;;;;24.19;77.28;101393.72;4990652;28;20046;-64
2022/08/24 11:02:35;;;;;;;19.15;10.45;;;;;;;24.14;76.64;101398.75;4986323;28;20073;-64
2022/08/24 11:05:06;;;;;;;13.02;10.13;;;;;;;24.01;76.05;101399.19;4998258;28;20049;-64
2022/08/24 11:07:35;;;;;;;15.18;9.98;;;;;;;24.05;76.87;101399.72;4989579;28;20047;-65
2022/08/24 11:10:08;;;;;;;10.32;9.20;;;;;;;24.13;76.99;101405.97;4988704;28;20069;-64
2022/08/24 11:12:39;;;;;;;11.95;10.10;;;;;;;24.25;76.23;101398.47;5005553;28;20061;-63
2022/08/24 11:15:18;;;;;;;14.45;10.93;;;;;;;24.28;75.74;101402.69;5003495;28;20580;-63
2022/08/24 11:17:57;;;;;;;11.27;9.70;;;;;;;24.40;75.45;101396.03;5005225;28;20041;-65
2022/08/24 11:20:31;;;;;;;12.38;9.60;;;;;;;24.52;74.74;101392.06;4999990;28;20141;-62
2022/08/24 11:23:17;;;;;;;11.53;9.67;;;;;;;24.65;73.91;101389.75;5006617;28;20050;-63
2022/08/24 11:25:55;;;;;;;11.90;9.35;;;;;;;24.87;73.86;101392.84;5001786;28;20543;-64
2022/08/24 11:28:30;;;;;;;13.15;9.15;;;;;;;25.05;73.16;101392.69;4975561;28;20498;-65
2022/08/24 11:30:57;;;;;;;12.93;9.45;;;;;;;25.13;71.50;101390.06;4988057;28;20077;-62
2022/08/24 11:33:27;;;;;;;12.40;9.20;;;;;;;25.23;71.31;101385.34;5006916;28;20068;-65
2022/08/24 11:35:54;;;;;;;11.82;8.52;;;;;;;25.32;71.53;101383.50;5008882;28;20065;-65
2022/08/24 11:38:25;;;;;;;10.15;8.05;;;;;;;25.31;70.94;101382.66;5009869;28;20053;-64
2022/08/24 11:40:54;;;;;;;8.55;7.63;;;;;;;25.26;71.22;101382.28;5009767;28;20057;-65
2022/08/24 11:43:51;;;;;;;9.55;8.00;;;;;;;25.15;70.56;101382.63;5007598;28;20068;-64
2022/08/24 11:46:41;;;;;;;12.35;8.50;;;;;;;25.08;70.29;101381.59;5003572;28;20246;-65
2022/08/24 11:49:17;;;;;;;10.80;8.23;;;;;;;24.88;70.55;101386.44;4993060;28;20069;-64
2022/08/24 11:52:02;;;;;;;12.00;8.50;;;;;;;24.88;71.33;101381.03;5008273;28;20425;-63
2022/08/24 11:54:29;;;;;;;;;;;;;;;25.06;71.54;101379.06;4992951;28;20056;-62
2022/08/24 11:57:11;;;;;;;14.13;9.02;;;;;;;25.15;69.76;101370.00;5009181;28;20369;-65